aviador You're here:

LFAQ Decoded Metar

ALBERT in FRANCE
Report Time2018-06-24 09:00:00
UTC Time2018-06-24 09:25:37
Flight Rules vfr VFR
Wind010° at 11 kt
W.Decomp.*RWY 09: 2.1 kt HW 10.8 kt LCW
W.Rank010° ranks 21
Current wind is above 010° avg. (7.0)
Visibility9999 m
Phenomena:N/A
Clouds:N/A
Expected CloudBase > 3,600 ft AGL from Temp-Dew spread
CeilingNone
Temp18°C (ISA +4)
Dew Point09°C (56% RH)
AAT13.8°C
QNH1024 hPa
Density Alt587 ft
Elevation364 ft
Report Wrong Elevation
Raw Report
METAR LFAQ 240900Z AUTO 01011KT CAVOK 18/09 Q1024 NOSIG=

Extra information for LFAQ:More info

Metar Taf Metar & Taf Last 4 Metars F.Rules Stats Wind Profile Meteogram Temp Stats Airport Information Weather charts Add Link Nearby VenuesMetar ALERT Operation Metar Decoded Social comments